createdAt,value
2019-05-11T00:00:21.426Z,29.57
2019-05-11T00:03:09.060Z,25.35
2019-05-11T00:05:57.468Z,31.65
2019-05-11T00:08:46.206Z,31.27
2019-05-11T00:11:34.441Z,31.52
2019-05-11T00:14:23.033Z,31.68
2019-05-11T00:17:11.389Z,29.32
2019-05-11T00:20:00.025Z,31.52
2019-05-11T00:22:48.101Z,28.70
2019-05-11T00:25:36.123Z,32.65
2019-05-11T00:28:24.440Z,31.68
2019-05-11T00:31:14.854Z,30.95
2019-05-11T00:34:02.567Z,33.00
2019-05-11T00:36:50.471Z,32.73
2019-05-11T00:39:39.081Z,32.35
2019-05-11T00:42:27.106Z,30.45
2019-05-11T00:45:15.368Z,34.53
2019-05-11T00:48:03.236Z,34.95
2019-05-11T00:50:51.536Z,31.62
2019-05-11T00:53:39.776Z,30.95
2019-05-11T00:56:27.857Z,33.28
2019-05-11T00:59:21.927Z,33.00
2019-05-11T01:02:05.445Z,36.75
2019-05-11T01:04:53.574Z,34.03
2019-05-11T01:07:42.087Z,36.00
2019-05-11T01:10:41.699Z,38.55
2019-05-11T01:13:20.722Z,36.03
2019-05-11T01:16:08.930Z,42.48
2019-05-11T01:18:56.772Z,40.95
2019-05-11T01:21:44.832Z,42.15
2019-05-11T01:24:33.289Z,45.65
2019-05-11T01:27:21.205Z,42.60
2019-05-11T01:30:09.779Z,45.38
2019-05-11T01:32:58.105Z,39.33
2019-05-11T01:35:46.883Z,41.30
2019-05-11T01:38:35.116Z,42.50
2019-05-11T01:41:23.021Z,50.40
2019-05-11T01:44:11.598Z,41.40
2019-05-11T01:46:59.479Z,45.17
2019-05-11T01:49:48.042Z,45.10
2019-05-11T01:52:36.518Z,46.05
2019-05-11T01:55:25.177Z,49.53
2019-05-11T01:58:13.558Z,49.80
2019-05-11T02:01:02.251Z,46.55
2019-05-11T02:03:50.645Z,44.55
2019-05-11T02:06:39.214Z,46.92
2019-05-11T02:09:26.932Z,48.00
2019-05-11T02:12:14.789Z,47.27
2019-05-11T02:15:02.792Z,50.10
2019-05-11T02:17:51.460Z,45.50
2019-05-11T02:20:39.712Z,49.80
2019-05-11T02:23:28.494Z,48.78
2019-05-11T02:26:17.137Z,48.85
2019-05-11T02:29:05.350Z,46.63
2019-05-11T02:31:53.626Z,49.83
2019-05-11T02:34:41.476Z,48.58
2019-05-11T02:37:30.147Z,47.98
2019-05-11T02:40:18.661Z,47.80
2019-05-11T02:43:06.553Z,48.70
2019-05-11T02:45:55.051Z,55.73
2019-05-11T02:48:44.592Z,53.23
2019-05-11T02:51:33.138Z,55.50
2019-05-11T02:54:21.585Z,45.40
2019-05-11T02:57:09.792Z,44.15
2019-05-11T02:59:58.472Z,45.65
2019-05-11T03:02:46.703Z,47.93
2019-05-11T03:05:34.441Z,37.70
2019-05-11T03:08:23.124Z,39.65
2019-05-11T03:11:10.928Z,48.17
2019-05-11T03:14:00.629Z,43.95
2019-05-11T03:16:50.425Z,47.08
2019-05-11T03:19:38.003Z,41.98
2019-05-11T03:22:25.645Z,44.42
2019-05-11T03:25:14.218Z,49.15
2019-05-11T03:28:02.867Z,47.03
2019-05-11T03:30:51.529Z,43.58
2019-05-11T03:33:39.635Z,48.78
2019-05-11T03:36:28.117Z,48.45
2019-05-11T03:39:15.888Z,48.35
2019-05-11T03:42:14.022Z,43.38
2019-05-11T03:44:53.717Z,49.90
2019-05-11T03:47:42.048Z,51.77
2019-05-11T03:50:30.161Z,47.55
2019-05-11T03:53:18.326Z,42.23
2019-05-11T03:56:06.616Z,44.10
2019-05-11T03:58:54.957Z,46.00
2019-05-11T04:01:43.399Z,41.77
2019-05-11T04:04:31.937Z,42.45
2019-05-11T04:07:20.120Z,43.35
2019-05-11T04:10:09.021Z,36.40
2019-05-11T04:12:57.107Z,47.40
2019-05-11T04:15:45.390Z,37.17
2019-05-11T04:18:33.167Z,43.85
2019-05-11T04:21:21.214Z,43.02
2019-05-11T04:24:09.324Z,42.15
2019-05-11T04:26:57.492Z,39.40
2019-05-11T04:29:45.607Z,47.50
2019-05-11T04:32:34.193Z,43.00
2019-05-11T04:35:22.063Z,48.45
2019-05-11T04:38:10.115Z,40.05
2019-05-11T04:40:58.581Z,41.80
2019-05-11T04:43:46.879Z,45.25
2019-05-11T04:46:35.049Z,39.98
2019-05-11T04:49:23.239Z,36.08
2019-05-11T04:52:11.340Z,39.90
2019-05-11T04:55:00.338Z,33.20
2019-05-11T04:57:48.131Z,32.63
2019-05-11T05:00:36.682Z,41.25
2019-05-11T05:03:39.672Z,36.68
2019-05-11T05:06:22.780Z,33.45
2019-05-11T05:09:05.670Z,43.92
2019-05-11T05:11:53.468Z,42.30
2019-05-11T05:14:41.687Z,36.80
2019-05-11T05:17:29.579Z,29.30
2019-05-11T05:20:17.521Z,32.63
2019-05-11T05:23:05.848Z,37.67
2019-05-11T05:25:53.856Z,34.35
2019-05-11T05:28:45.595Z,34.13
2019-05-11T05:31:32.000Z,28.83
2019-05-11T05:34:19.776Z,31.37
2019-05-11T05:37:08.191Z,36.30
2019-05-11T05:39:56.098Z,24.55
2019-05-11T05:42:44.388Z,31.20
2019-05-11T05:45:32.451Z,30.25
2019-05-11T05:48:20.610Z,22.42
2019-05-11T05:51:08.798Z,21.73
2019-05-11T05:53:57.139Z,23.18
2019-05-11T05:56:45.575Z,20.85
2019-05-11T05:59:34.584Z,22.62
2019-05-11T06:02:22.783Z,25.43
2019-05-11T06:05:11.059Z,21.20
2019-05-11T06:07:59.509Z,31.17
2019-05-11T06:10:47.503Z,30.32
2019-05-11T06:13:45.169Z,21.62
2019-05-11T06:16:24.801Z,22.62
2019-05-11T06:19:12.533Z,22.02
2019-05-11T06:22:00.814Z,23.07
2019-05-11T06:24:48.931Z,20.48
2019-05-11T06:27:37.285Z,27.02
2019-05-11T06:30:25.796Z,26.40
2019-05-11T06:33:13.547Z,21.48
2019-05-11T06:36:01.907Z,23.83
2019-05-11T06:38:49.883Z,27.02
2019-05-11T06:41:37.980Z,25.50
2019-05-11T06:44:26.426Z,24.30
2019-05-11T06:47:15.014Z,27.80
2019-05-11T06:50:03.258Z,22.65
2019-05-11T06:53:00.372Z,25.95
2019-05-11T06:55:48.684Z,25.20
2019-05-11T06:58:37.251Z,29.63
2019-05-11T07:01:26.137Z,25.70
2019-05-11T07:04:14.336Z,28.05
2019-05-11T07:07:02.157Z,23.67
2019-05-11T07:09:50.647Z,29.77
2019-05-11T07:12:58.010Z,22.93
2019-05-11T07:15:46.255Z,21.00
2019-05-11T07:18:34.825Z,23.32
2019-05-11T07:21:22.728Z,20.12
2019-05-11T07:24:11.070Z,21.75
2019-05-11T07:26:58.785Z,25.27
2019-05-11T07:29:46.752Z,20.62
2019-05-11T07:32:37.940Z,23.40
2019-05-11T07:35:27.828Z,31.10
2019-05-11T07:38:18.394Z,25.35
2019-05-11T07:41:08.699Z,25.60
2019-05-11T07:43:58.784Z,21.70
2019-05-11T07:46:48.128Z,24.10
2019-05-11T07:49:38.030Z,20.45
2019-05-11T07:52:25.067Z,16.50
2019-05-11T07:55:14.480Z,24.67
2019-05-11T07:58:02.709Z,21.17
2019-05-11T08:00:51.315Z,26.07
2019-05-11T08:03:39.353Z,21.02
2019-05-11T08:06:28.682Z,19.37
2019-05-11T08:09:18.635Z,15.65
2019-05-11T08:12:08.908Z,18.48
2019-05-11T08:15:06.020Z,15.28
2019-05-11T08:17:48.807Z,14.15
2019-05-11T08:20:38.371Z,14.55
2019-05-11T08:23:28.332Z,22.87
2019-05-11T08:26:15.850Z,14.93
2019-05-11T08:29:04.584Z,21.52
2019-05-11T08:31:52.677Z,14.80
2019-05-11T08:34:40.361Z,20.17
2019-05-11T08:37:28.487Z,15.25
2019-05-11T08:40:18.387Z,14.40
2019-05-11T08:43:08.793Z,16.97
2019-05-11T08:45:57.880Z,12.35
2019-05-11T08:48:47.877Z,12.20
2019-05-11T08:51:38.376Z,22.37
2019-05-11T08:54:25.914Z,12.25
2019-05-11T08:57:33.113Z,10.15
2019-05-11T09:00:21.433Z,13.30
2019-05-11T09:03:09.849Z,14.83
2019-05-11T09:05:58.001Z,14.65
2019-05-11T09:08:46.287Z,15.95
2019-05-11T09:11:34.907Z,13.20
2019-05-11T09:14:23.396Z,13.35
2019-05-11T09:17:12.195Z,23.87
2019-05-11T09:20:00.055Z,10.32
2019-05-11T09:22:50.117Z,13.32
2019-05-11T09:25:38.619Z,13.93
2019-05-11T09:28:29.244Z,11.63
2019-05-11T09:31:18.865Z,10.53
2019-05-11T09:34:08.766Z,22.85
2019-05-11T09:36:58.685Z,9.13
2019-05-11T09:39:47.858Z,10.98
2019-05-11T09:42:35.789Z,16.73
2019-05-11T09:45:24.054Z,17.42
2019-05-11T09:48:12.530Z,15.43
2019-05-11T09:51:00.470Z,18.57
2019-05-11T09:53:48.651Z,11.10
2019-05-11T09:56:38.225Z,19.07
2019-05-11T09:59:28.265Z,12.25
2019-05-11T10:02:20.711Z,13.95
2019-05-11T10:05:09.722Z,16.62
2019-05-11T10:07:58.891Z,10.25
2019-05-11T10:10:48.824Z,10.08
2019-05-11T10:13:38.438Z,11.33
2019-05-11T10:16:28.022Z,13.10
2019-05-11T10:19:17.873Z,9.38
2019-05-11T10:22:07.940Z,6.35
2019-05-11T10:24:58.235Z,8.95
2019-05-11T10:27:48.595Z,9.60
2019-05-11T10:30:38.396Z,11.55
2019-05-11T10:33:25.159Z,8.48
2019-05-11T10:36:13.055Z,9.30
2019-05-11T10:39:00.604Z,9.78
2019-05-11T10:41:49.294Z,7.08
2019-05-11T10:44:38.559Z,22.73
2019-05-11T10:47:27.801Z,10.05
2019-05-11T10:50:15.991Z,9.00
2019-05-11T10:53:03.915Z,7.00
2019-05-11T10:55:52.228Z,8.88
2019-05-11T10:58:40.557Z,13.83
2019-05-11T11:01:28.612Z,17.10
2019-05-11T11:04:18.339Z,12.88
2019-05-11T11:07:07.817Z,10.85
2019-05-11T11:09:58.055Z,4.70
2019-05-11T11:12:45.611Z,4.92
2019-05-11T11:15:33.824Z,13.90
2019-05-11T11:18:22.353Z,13.60
2019-05-11T11:21:10.243Z,6.97
2019-05-11T11:23:58.736Z,10.70
2019-05-11T11:26:48.616Z,11.30
2019-05-11T11:29:38.804Z,6.17
2019-05-11T11:32:27.830Z,10.68
2019-05-11T11:35:18.518Z,9.00
2019-05-11T11:38:05.841Z,8.38
2019-05-11T11:40:54.242Z,2.85
2019-05-11T11:43:48.100Z,5.53
2019-05-11T11:46:50.344Z,4.55
2019-05-11T11:49:24.445Z,5.80
2019-05-11T11:52:12.368Z,11.28
2019-05-11T11:55:01.449Z,7.20
2019-05-11T11:57:50.430Z,4.60
2019-05-11T12:00:39.253Z,6.12
2019-05-11T12:03:27.805Z,4.72
2019-05-11T12:06:18.235Z,13.08
2019-05-11T12:09:08.782Z,6.55
2019-05-11T12:11:58.328Z,6.75
2019-05-11T12:14:47.984Z,3.12
2019-05-11T12:17:37.604Z,3.00
2019-05-11T12:20:25.273Z,3.60
2019-05-11T12:23:14.124Z,5.08
2019-05-11T12:26:04.418Z,3.27
2019-05-11T12:28:52.933Z,3.52
2019-05-11T12:31:41.131Z,1.82
2019-05-11T12:34:28.997Z,3.20
2019-05-11T12:37:17.878Z,4.40
2019-05-11T12:40:08.378Z,6.20
2019-05-11T12:42:58.403Z,3.05
2019-05-11T12:45:48.102Z,4.15
2019-05-11T12:48:37.757Z,5.53
2019-05-11T12:51:25.085Z,2.65
2019-05-11T12:54:15.301Z,1.32
2019-05-11T12:57:03.480Z,2.22
2019-05-11T12:59:51.964Z,6.47
2019-05-11T13:02:41.934Z,2.75
2019-05-11T13:05:29.546Z,6.47
2019-05-11T13:08:18.439Z,5.87
2019-05-11T13:11:07.883Z,4.53
2019-05-11T13:13:58.589Z,2.55
2019-05-11T13:16:45.544Z,1.32
2019-05-11T13:19:34.993Z,3.80
2019-05-11T13:22:22.663Z,1.85
2019-05-11T13:25:10.734Z,3.90
2019-05-11T13:27:59.116Z,1.87
2019-05-11T13:30:48.824Z,5.15
2019-05-11T13:33:38.430Z,7.25
2019-05-11T13:36:28.518Z,2.25
2019-05-11T13:39:15.526Z,2.10
2019-05-11T13:42:03.279Z,3.98
2019-05-11T13:44:51.340Z,8.35
2019-05-11T13:47:51.867Z,5.28
2019-05-11T13:50:29.794Z,5.15
2019-05-11T13:53:18.615Z,3.35
2019-05-11T13:56:08.005Z,4.55
2019-05-11T13:58:58.278Z,2.83
2019-05-11T14:01:47.804Z,4.30
2019-05-11T14:04:38.523Z,1.75
2019-05-11T14:07:27.593Z,1.80
2019-05-11T14:10:17.408Z,5.22
2019-05-11T14:13:05.041Z,2.95
2019-05-11T14:15:53.632Z,2.25
2019-05-11T14:18:41.706Z,3.98
2019-05-11T14:21:29.858Z,3.67
2019-05-11T14:24:18.467Z,2.15
2019-05-11T14:27:08.483Z,6.25
2019-05-11T14:29:57.794Z,5.55
2019-05-11T14:32:47.800Z,1.98
2019-05-11T14:35:35.321Z,1.20
2019-05-11T14:38:23.615Z,2.67
2019-05-11T14:41:12.038Z,3.00
2019-05-11T14:44:00.430Z,1.32
2019-05-11T14:46:48.790Z,2.52
2019-05-11T14:49:37.898Z,2.45
2019-05-11T14:52:27.955Z,9.15
2019-05-11T14:55:15.447Z,2.58
2019-05-11T14:58:04.172Z,10.68
2019-05-11T15:00:53.014Z,2.20
2019-05-11T15:03:41.249Z,1.85
2019-05-11T15:06:29.215Z,7.20
2019-05-11T15:09:18.291Z,4.70
2019-05-11T15:12:08.649Z,1.65
2019-05-11T15:14:58.998Z,2.20
2019-05-11T15:17:48.874Z,3.77
2019-05-11T15:20:38.339Z,5.92
2019-05-11T15:23:28.313Z,3.30
2019-05-11T15:26:15.528Z,2.25
2019-05-11T15:29:04.270Z,5.15
2019-05-11T15:31:52.233Z,2.33
2019-05-11T15:34:40.075Z,2.50
2019-05-11T15:37:28.544Z,3.52
2019-05-11T15:40:18.850Z,1.57
2019-05-11T15:43:08.746Z,3.90
2019-05-11T15:45:57.923Z,4.37
2019-05-11T15:48:56.682Z,3.15
2019-05-11T15:51:38.323Z,3.60
2019-05-11T15:54:25.131Z,2.35
2019-05-11T15:57:13.746Z,1.80
2019-05-11T16:00:02.121Z,2.45
2019-05-11T16:02:49.895Z,4.35
2019-05-11T16:05:38.414Z,1.30
2019-05-11T16:08:28.308Z,3.42
2019-05-11T16:11:18.233Z,3.60
2019-05-11T16:14:08.658Z,4.10
2019-05-11T16:16:58.325Z,2.58
2019-05-11T16:19:45.882Z,2.40
2019-05-11T16:22:34.220Z,2.22
2019-05-11T16:25:22.479Z,6.45
2019-05-11T16:28:10.860Z,4.40
2019-05-11T16:30:58.593Z,4.12
2019-05-11T16:33:48.358Z,2.40
2019-05-11T16:36:38.662Z,1.02
2019-05-11T16:39:27.936Z,5.60
2019-05-11T16:42:16.351Z,3.12
2019-05-11T16:45:08.567Z,4.17
2019-05-11T16:47:58.668Z,2.22
2019-05-11T16:50:45.718Z,2.70
2019-05-11T16:53:35.313Z,4.65
2019-05-11T16:56:23.221Z,2.77
2019-05-11T16:59:12.065Z,6.03
2019-05-11T17:01:59.958Z,6.05
2019-05-11T17:04:48.254Z,3.95
2019-05-11T17:07:37.634Z,5.28
2019-05-11T17:10:28.266Z,4.78
2019-05-11T17:13:17.924Z,3.27
2019-05-11T17:16:05.588Z,3.65
2019-05-11T17:18:53.493Z,4.12
2019-05-11T17:21:42.323Z,3.33
2019-05-11T17:24:30.896Z,3.72
2019-05-11T17:27:18.927Z,2.27
2019-05-11T17:30:08.780Z,7.28
2019-05-11T17:32:56.369Z,3.98
2019-05-11T17:35:44.579Z,5.20
2019-05-11T17:38:33.838Z,3.92
2019-05-11T17:41:22.718Z,5.87
2019-05-11T17:44:10.810Z,4.12
2019-05-11T17:46:59.380Z,5.72
2019-05-11T17:49:57.399Z,4.05
2019-05-11T17:52:38.580Z,2.70
2019-05-11T17:55:28.675Z,3.33
2019-05-11T17:58:18.526Z,1.80
2019-05-11T18:01:09.131Z,3.00
2019-05-11T18:03:55.708Z,1.75
2019-05-11T18:06:44.418Z,4.58
2019-05-11T18:09:32.312Z,4.33
2019-05-11T18:12:20.585Z,3.27
2019-05-11T18:15:09.014Z,1.75
2019-05-11T18:17:58.740Z,2.98
2019-05-11T18:20:48.452Z,2.83
2019-05-11T18:23:38.739Z,5.55
2019-05-11T18:26:28.453Z,3.77
2019-05-11T18:29:18.072Z,2.33
2019-05-11T18:32:05.120Z,6.17
2019-05-11T18:34:53.644Z,2.30
2019-05-11T18:37:42.369Z,1.90
2019-05-11T18:40:30.912Z,2.40
2019-05-11T18:43:19.000Z,3.42
2019-05-11T18:46:08.490Z,4.95
2019-05-11T18:48:57.109Z,3.83
2019-05-11T18:51:45.248Z,2.83
2019-05-11T18:54:32.725Z,1.85
2019-05-11T18:57:20.933Z,3.20
2019-05-11T19:00:09.563Z,4.53
2019-05-11T19:02:58.132Z,3.05
2019-05-11T19:05:48.076Z,4.47
2019-05-11T19:08:38.430Z,2.83
2019-05-11T19:11:28.944Z,2.05
2019-05-11T19:14:16.933Z,2.65
2019-05-11T19:17:04.754Z,3.55
2019-05-11T19:19:53.200Z,5.85
2019-05-11T19:22:41.800Z,3.08
2019-05-11T19:25:29.953Z,4.30
2019-05-11T19:28:18.783Z,4.83
2019-05-11T19:31:08.366Z,5.42
2019-05-11T19:33:58.193Z,3.20
2019-05-11T19:36:48.393Z,5.45
2019-05-11T19:39:38.354Z,6.97
2019-05-11T19:42:28.373Z,3.47
2019-05-11T19:45:15.441Z,2.58
2019-05-11T19:48:04.219Z,3.35
2019-05-11T19:51:03.312Z,2.37
2019-05-11T19:53:41.611Z,8.15
2019-05-11T19:56:30.251Z,2.90
2019-05-11T19:59:18.825Z,2.37
2019-05-11T20:02:08.393Z,4.72
2019-05-11T20:04:58.434Z,3.33
2019-05-11T20:07:48.655Z,4.08
2019-05-11T20:10:38.117Z,5.10
2019-05-11T20:13:25.372Z,4.95
2019-05-11T20:16:13.579Z,5.03
2019-05-11T20:19:02.119Z,3.87
2019-05-11T20:21:50.219Z,2.52
2019-05-11T20:24:38.614Z,1.07
2019-05-11T20:27:28.296Z,4.25
2019-05-11T20:30:18.412Z,9.50
2019-05-11T20:33:05.358Z,2.62
2019-05-11T20:35:53.181Z,5.03
2019-05-11T20:38:41.292Z,3.42
2019-05-11T20:41:29.260Z,2.12
2019-05-11T20:44:17.931Z,3.20
2019-05-11T20:47:06.359Z,4.03
2019-05-11T20:49:54.486Z,1.10
2019-05-11T20:52:44.051Z,1.80
2019-05-11T20:55:32.294Z,2.70
2019-05-11T20:58:20.473Z,2.75
2019-05-11T21:01:08.414Z,1.50
2019-05-11T21:03:58.401Z,2.65
2019-05-11T21:06:48.675Z,6.47
2019-05-11T21:09:37.933Z,1.40
2019-05-11T21:12:28.687Z,2.58
2019-05-11T21:15:17.978Z,1.90
2019-05-11T21:18:07.885Z,5.55
2019-05-11T21:20:57.667Z,6.10
2019-05-11T21:23:48.662Z,3.52
2019-05-11T21:26:38.365Z,4.83
2019-05-11T21:29:28.287Z,1.00
2019-05-11T21:32:15.094Z,2.47
2019-05-11T21:35:03.226Z,3.52
2019-05-11T21:37:51.299Z,11.08
2019-05-11T21:40:39.771Z,2.17
2019-05-11T21:43:27.949Z,2.00
2019-05-11T21:46:17.862Z,2.15
2019-05-11T21:49:04.790Z,3.10
2019-05-11T21:52:04.087Z,3.45
2019-05-11T21:54:42.566Z,3.72
2019-05-11T21:57:30.336Z,2.12
2019-05-11T22:00:19.174Z,2.98
2019-05-11T22:03:10.190Z,1.67
2019-05-11T22:05:57.965Z,6.53
2019-05-11T22:08:48.279Z,2.02
2019-05-11T22:11:35.121Z,1.65
2019-05-11T22:14:22.888Z,6.40
2019-05-11T22:17:10.926Z,2.10
2019-05-11T22:19:59.448Z,1.95
2019-05-11T22:22:47.696Z,5.65
2019-05-11T22:25:37.993Z,2.65
2019-05-11T22:28:28.220Z,1.80
2019-05-11T22:31:14.929Z,4.62
2019-05-11T22:34:03.576Z,4.58
2019-05-11T22:36:51.430Z,2.05
2019-05-11T22:39:39.393Z,3.40
2019-05-11T22:42:28.036Z,3.62
2019-05-11T22:45:18.743Z,3.62
2019-05-11T22:48:07.898Z,3.33
2019-05-11T22:50:58.597Z,5.33
2019-05-11T22:53:48.009Z,4.50
2019-05-11T22:56:38.069Z,2.08
2019-05-11T22:59:27.876Z,3.95
2019-05-11T23:02:14.614Z,3.85
2019-05-11T23:05:03.631Z,1.65
2019-05-11T23:07:51.291Z,4.62
2019-05-11T23:10:39.075Z,3.98
2019-05-11T23:13:27.898Z,5.22
2019-05-11T23:16:18.831Z,4.78
2019-05-11T23:19:09.467Z,2.85
2019-05-11T23:21:58.681Z,3.33
2019-05-11T23:24:48.078Z,2.37
2019-05-11T23:27:39.115Z,4.60
2019-05-11T23:30:27.930Z,2.05
2019-05-11T23:33:15.363Z,5.15
2019-05-11T23:36:03.543Z,7.37
2019-05-11T23:38:51.415Z,4.90
2019-05-11T23:41:39.706Z,6.22
2019-05-11T23:44:27.744Z,5.12
2019-05-11T23:47:20.038Z,2.77
2019-05-11T23:50:08.308Z,5.37
2019-05-11T23:53:05.938Z,3.52
2019-05-11T23:55:48.297Z,1.95
2019-05-11T23:58:35.281Z,1.30
